Time;durP1;ratioP1;P1;durP2;ratioP2;P2;SDS_P1;SDS_P2;PMS_P1;PMS_P2;Temp;Humidity;BMP_temperature;BMP_pressure;BME280_temperature;BME280_humidity;BME280_pressure;Samples;Min_cycle;Max_cycle;Signal;HPM_P1;HPM_P2
2022/11/19 00:00:44;;;;;;;;;;;;;;;;;;;;;
2022/11/19 00:03:43;;;;;;;;;;;;;;;;;;;;;
2022/11/19 00:06:34;;;;;;;;;;;;;;;;;;;;;
2022/11/19 00:09:19;;;;;;;;;;;;;;;;;;;;;
2022/11/19 00:15:24;;;;;;;;;;;;;;;;;;;;;
2022/11/19 00:18:38;;;;;;;;;;;;;;;;;;;;;
2022/11/19 00:21:43;;;;;;;;;;;;;;;;;;;;;
2022/11/19 00:24:46;;;;;;;;;;;;;;;;;;;;;
2022/11/19 00:27:24;;;;;;;;;;;;;;;;;;;;;
2022/11/19 00:33:30;;;;;;;;;;;;;;;;;;;;;
2022/11/19 00:35:59;;;;;;;;;11.00;9.00;;;;;8.24;69.69;100665.69;6092495;23;74002;-79
2022/11/19 00:38:25;;;;;;;;;8.25;7.50;;;;;8.25;70.08;100659.56;6151322;23;45789;-79
2022/11/19 00:41:00;;;;;;;;;;;;;;;;;;;;;
2022/11/19 00:46:13;;;;;;;;;8.50;7.00;;;;;8.36;69.83;100685.84;6186661;23;45731;-78
2022/11/19 00:48:39;;;;;;;;;7.00;6.25;;;;;8.33;69.70;100677.97;6184587;22;45629;-78
2022/11/19 00:51:06;;;;;;;;;11.50;8.00;;;;;8.06;70.09;100640.25;6187718;22;45350;-76
2022/11/19 00:53:32;;;;;;;;;10.25;9.25;;;;;8.27;69.94;100678.81;6183963;23;45333;-78
2022/11/19 00:56:10;;;;;;;;;8.00;7.25;;;;;8.02;70.01;100641.13;6185781;23;46084;-78
2022/11/19 00:58:46;;;;;;;;;;;;;;;;;;;;;
2022/11/19 01:01:13;;;;;;;;;9.75;9.25;;;;;8.05;70.25;100646.38;6187950;23;69502;-79
2022/11/19 01:03:42;;;;;;;;;9.00;7.00;;;;;8.20;70.12;100670.91;6184888;23;45467;-79
2022/11/19 01:06:23;;;;;;;;;;;;;;;;;;;;;
2022/11/19 01:08:50;;;;;;;;;10.50;7.50;;;;;8.18;70.27;100678.78;6185535;23;71906;-78
2022/11/19 01:11:25;;;;;;;;;5.25;5.25;;;;;7.91;70.00;100635.84;6186893;23;45231;-79
2022/11/19 01:13:58;;;;;;;;;7.75;6.75;;;;;8.09;70.55;100678.72;6188351;22;45475;-80
2022/11/19 01:16:35;;;;;;;;;9.00;7.50;;;;;7.83;70.69;100636.63;6187231;23;46800;-79
2022/11/19 01:19:15;;;;;;;;;;;;;;;;;;;;;
2022/11/19 01:21:41;;;;;;;;;7.50;6.25;;;;;7.80;70.60;100658.47;6188756;23;67508;-79
2022/11/19 01:24:09;;;;;;;;;10.25;9.00;;;;;7.77;70.66;100657.56;6184431;23;45480;-79
2022/11/19 01:26:35;;;;;;;;;8.50;7.75;;;;;7.84;70.80;100675.09;6188297;22;45348;-79
2022/11/19 01:29:10;;;;;;;;;;;;;;;;;;;;;
2022/11/19 01:31:44;;;;;;;;;9.75;9.00;;;;;7.83;70.98;100689.03;6186708;23;69011;-78
2022/11/19 01:34:10;;;;;;;;;21.50;17.75;;;;;7.87;71.30;100698.69;6184018;23;45260;-79
2022/11/19 01:36:45;;;;;;;;;;;;;;;;;;;;;
2022/11/19 01:39:18;;;;;;;;;10.25;8.00;;;;;7.77;71.38;100689.00;6184889;23;72907;-79
2022/11/19 01:41:51;;;;;;;;;9.75;8.00;;;;;7.71;71.21;100679.38;6187328;22;45328;-79
2022/11/19 01:45:12;;;;;;;;;7.25;7.00;;;;;7.90;71.41;100712.69;6183318;23;45392;-79
2022/11/19 01:47:37;;;;;;;;;5.00;5.00;;;;;7.78;71.17;100691.66;6175120;23;45317;-79
2022/11/19 01:50:04;;;;;;;;;6.50;6.00;;;;;7.82;71.18;100705.66;6184716;23;45170;-78
2022/11/19 01:52:39;;;;;;;;;;;;;;;;;;;;;
2022/11/19 01:55:17;;;;;;;;;;;;;;;;;;;;;
2022/11/19 01:57:53;;;;;;;;;10.00;7.75;;;;;7.63;71.44;100681.94;6184743;23;75294;-79
2022/11/19 02:00:21;;;;;;;;;4.50;4.00;;;;;7.72;71.46;100689.88;6185013;23;45358;-79
2022/11/19 02:02:47;;;;;;;;;6.50;5.75;;;;;7.81;71.47;100701.28;6185850;22;45177;-78
2022/11/19 02:05:12;;;;;;;;;7.50;7.50;;;;;7.62;71.68;100668.84;6186816;22;45169;-78
2022/11/19 02:07:41;;;;;;;;;8.50;7.75;;;;;7.76;71.65;100687.28;6184081;23;47903;-79
2022/11/19 02:10:07;;;;;;;;;8.00;8.00;;;;;7.82;71.74;100692.53;6186923;22;45262;-78
2022/11/19 02:13:01;;;;;;;;;4.75;4.75;;;;;7.99;71.73;100714.47;6186302;23;45306;-78
2022/11/19 02:15:47;;;;;;;;;10.00;8.00;;;;;8.03;71.43;100712.78;6188086;22;45241;-78
2022/11/19 02:18:34;;;;;;;;;8.75;7.00;;;;;7.85;71.79;100689.94;6185080;23;47322;-78
2022/11/19 02:21:48;;;;;;;;;20.50;14.50;;;;;7.99;71.85;100692.66;6188335;22;45181;-78
2022/11/19 02:24:23;;;;;;;;;10.00;9.50;;;;;7.83;71.54;100661.13;6167110;23;45303;-78
2022/11/19 02:26:58;;;;;;;;;21.75;18.75;;;;;8.18;71.39;100711.13;6188272;22;45317;-79
2022/11/19 02:29:30;;;;;;;;;14.50;14.50;;;;;8.23;71.48;100718.13;6185150;23;46895;-79
2022/11/19 02:32:12;;;;;;;;;9.50;8.00;;;;;8.25;71.41;100714.66;6188377;22;45390;-78
2022/11/19 02:34:54;;;;;;;;;8.00;7.50;;;;;8.18;71.22;100703.25;6187585;23;45257;-78
2022/11/19 02:37:57;;;;;;;;;8.50;8.25;;;;;8.29;71.24;100723.44;6187677;22;45184;-78
2022/11/19 02:40:37;;;;;;;;;6.00;4.50;;;;;8.13;71.33;100686.63;6187263;23;45390;-79
2022/11/19 02:43:24;;;;;;;;;5.50;5.50;;;;;8.30;71.32;100706.81;6183867;23;45321;-79
2022/11/19 02:46:02;;;;;;;;;6.75;5.00;;;;;8.28;71.08;100703.28;6187937;22;45154;-79
2022/11/19 02:48:45;;;;;;;;;9.75;8.25;;;;;8.36;71.19;100723.44;6187485;22;45360;-78
2022/11/19 02:51:11;;;;;;;;;8.25;7.00;;;;;8.21;71.00;100686.66;6187448;22;45402;-78
2022/11/19 02:53:36;;;;;;;;;7.25;4.00;;;;;8.40;71.58;100721.75;6187185;23;45307;-79
2022/11/19 02:56:13;;;;;;;;;10.25;7.75;;;;;8.34;70.79;100709.47;6188679;22;45354;-78
2022/11/19 03:04:28;;;;;;;;;9.25;7.75;;;;;8.27;70.96;100688.44;6186880;23;45146;-79
2022/11/19 03:07:16;;;;;;;;;8.75;5.00;;;;;8.25;71.19;100684.94;6186988;23;45197;-79
2022/11/19 03:09:49;;;;;;;;;6.25;5.75;;;;;8.31;71.01;100709.44;6185255;23;45717;-78
2022/11/19 03:12:29;;;;;;;;;3.75;3.50;;;;;8.33;71.03;100712.94;6188011;22;45339;-79
2022/11/19 03:18:21;;;;;;;;;4.50;4.50;;;;;8.22;71.29;100705.91;6187176;23;45124;-79
2022/11/19 03:21:06;;;;;;;;;6.00;5.00;;;;;8.22;71.43;100713.75;6211472;22;45360;-78
2022/11/19 03:23:42;;;;;;;;;4.75;4.75;;;;;8.29;71.42;100713.81;6184462;23;47080;-79
2022/11/19 03:26:35;;;;;;;;;4.00;3.75;;;;;8.38;71.30;100720.84;6188711;22;45189;-79
2022/11/19 03:29:07;;;;;;;;;6.25;5.75;;;;;8.37;71.32;100725.22;6187196;22;45424;-79
2022/11/19 03:31:34;;;;;;;;;6.75;6.75;;;;;8.15;71.36;100684.00;6188183;22;45169;-79
2022/11/19 03:34:06;;;;;;;;;9.00;7.75;;;;;8.26;71.79;100712.91;6186703;23;46475;-79
2022/11/19 03:36:36;;;;;;;;;9.00;8.00;;;;;8.38;71.57;100737.44;6189228;22;45240;-79
2022/11/19 03:39:07;;;;;;;;;8.75;7.75;;;;;8.31;71.50;100719.03;6187246;22;45379;-79
2022/11/19 03:41:36;;;;;;;;;6.50;6.50;;;;;8.08;71.25;100679.59;6188131;22;45217;-79
2022/11/19 03:44:12;;;;;;;;;10.50;7.00;;;;;8.16;71.67;100691.88;6184314;23;47741;-79
2022/11/19 03:46:39;;;;;;;;;8.75;7.75;;;;;8.29;71.32;100719.06;6185793;23;45475;-79
2022/11/19 03:49:15;;;;;;;;;5.25;4.25;;;;;8.06;71.52;100686.56;6184894;23;45154;-78
2022/11/19 03:51:48;;;;;;;;;5.25;4.00;;;;;8.15;71.65;100704.97;6185585;23;45198;-79
2022/11/19 03:54:14;;;;;;;;;8.00;6.50;;;;;8.11;71.79;100704.09;6187195;22;45387;-78
2022/11/19 03:56:41;;;;;;;;;7.50;5.00;;;;;8.18;71.60;100720.75;6188400;22;45294;-79
2022/11/19 03:59:10;;;;;;;;;9.25;7.25;;;;;8.25;71.65;100740.00;6185448;23;45217;-78
2022/11/19 04:01:36;;;;;;;;;7.00;5.00;;;;;8.17;71.83;100724.22;6186357;23;45286;-80
2022/11/19 04:06:47;;;;;;;;;5.00;5.00;;;;;8.40;71.59;100740.13;6188526;23;45354;-79
2022/11/19 04:09:12;;;;;;;;;3.00;2.00;;;;;8.34;71.49;100724.28;6185166;23;45377;-79
2022/11/19 04:11:42;;;;;;;;;6.50;4.00;;;;;8.35;71.56;100720.81;6188809;22;45355;-79
2022/11/19 04:14:08;;;;;;;;;4.75;4.75;;;;;8.36;71.53;100722.56;6184678;23;47629;-79
2022/11/19 04:16:34;;;;;;;;;5.25;4.75;;;;;8.20;71.73;100694.50;6188514;22;45132;-78
2022/11/19 04:18:59;;;;;;;;;7.50;5.50;;;;;8.30;71.36;100704.19;6185465;23;45190;-79
2022/11/19 04:21:24;;;;;;;;;4.00;4.00;;;;;8.35;71.31;100711.19;6188974;22;45085;-79
2022/11/19 04:23:50;;;;;;;;;7.00;4.75;;;;;8.32;71.30;100719.06;6184581;23;46934;-79
2022/11/19 04:26:15;;;;;;;;;9.25;7.00;;;;;8.48;71.07;100741.03;6186323;23;45366;-79
2022/11/19 04:28:41;;;;;;;;;6.75;4.75;;;;;8.37;71.24;100726.97;6187515;22;45374;-78
2022/11/19 04:31:06;;;;;;;;;7.25;5.75;;;;;8.18;71.20;100695.41;6187654;23;45272;-78
2022/11/19 04:33:31;;;;;;;;;3.75;3.75;;;;;8.39;70.98;100735.72;6187084;22;46171;-78
2022/11/19 04:35:57;;;;;;;;;5.00;4.00;;;;;8.38;71.15;100731.31;6187090;22;45362;-78
2022/11/19 04:38:22;;;;;;;;;7.00;5.00;;;;;8.36;71.12;100736.56;6186886;23;45363;-78
2022/11/19 04:40:48;;;;;;;;;5.75;4.25;;;;;8.37;71.13;100742.69;6188767;22;45489;-79
2022/11/19 04:43:13;;;;;;;;;5.00;5.00;;;;;8.24;71.09;100719.91;6184736;23;45985;-79
2022/11/19 04:45:38;;;;;;;;;6.50;4.25;;;;;8.53;71.19;100775.19;6186875;22;45259;-79
2022/11/19 04:48:04;;;;;;;;;5.50;4.00;;;;;8.42;71.07;100756.75;6186642;23;45412;-79
2022/11/19 04:50:29;;;;;;;;;8.50;5.50;;;;;8.45;71.21;100754.16;6188738;22;45240;-78
2022/11/19 04:52:54;;;;;;;;;4.00;4.00;;;;;8.48;71.29;100756.78;6184954;23;48207;-79
2022/11/19 04:55:20;;;;;;;;;5.75;5.00;;;;;8.29;71.35;100716.44;6184699;23;45130;-79
2022/11/19 04:57:45;;;;;;;;;9.50;7.75;;;;;8.48;71.03;100756.78;6186952;23;45237;-79
2022/11/19 05:00:11;;;;;;;;;5.25;5.25;;;;;8.43;71.16;100748.00;6188548;22;45231;-79
2022/11/19 05:02:37;;;;;;;;;5.00;5.00;;;;;8.51;71.33;100774.28;6184594;23;46977;-79
2022/11/19 05:05:02;;;;;;;;;6.25;5.75;;;;;8.56;71.10;100790.94;6184259;23;45174;-78
2022/11/19 05:07:28;;;;;;;;;6.50;5.25;;;;;8.47;71.33;100778.63;6190301;22;45315;-79
2022/11/19 05:09:53;;;;;;;;;7.25;6.00;;;;;8.28;71.46;100754.00;6184804;23;45151;-79
2022/11/19 05:12:19;;;;;;;;;7.25;4.50;;;;;8.34;71.29;100764.53;6186679;22;45154;-78
2022/11/19 05:14:44;;;;;;;;;9.25;8.25;;;;;8.47;71.47;100788.25;6184297;23;45437;-79
2022/11/19 05:17:10;;;;;;;;;5.25;5.00;;;;;8.17;71.61;100745.19;6186202;23;45201;-79
2022/11/19 05:19:35;;;;;;;;;10.50;7.00;;;;;8.34;71.66;100775.03;6186713;22;45372;-79
2022/11/19 05:22:00;;;;;;;;;8.25;6.00;;;;;8.46;71.67;100789.13;6186497;22;46240;-78
2022/11/19 05:24:26;;;;;;;;;6.00;6.00;;;;;8.24;71.61;100752.25;6186267;22;45267;-78
2022/11/19 05:26:51;;;;;;;;;6.50;4.00;;;;;8.43;71.84;100789.09;6187615;22;45929;-78
2022/11/19 05:29:16;;;;;;;;;9.00;8.00;;;;;8.28;71.59;100766.25;6186361;22;45392;-78
2022/11/19 05:31:42;;;;;;;;;8.00;6.00;;;;;8.14;71.59;100758.28;6186696;22;46172;-78
2022/11/19 05:34:07;;;;;;;;;6.50;6.50;;;;;8.06;71.46;100745.13;6186844;22;45303;-78
2022/11/19 05:36:32;;;;;;;;;8.25;6.00;;;;;8.20;71.78;100783.69;6187277;22;45323;-79
2022/11/19 05:38:58;;;;;;;;;10.25;9.00;;;;;8.10;72.04;100761.75;6186758;22;45245;-79
2022/11/19 05:41:23;;;;;;;;;9.00;8.25;;;;;8.16;72.02;100775.78;6186391;22;45351;-79
2022/11/19 05:43:49;;;;;;;;;8.50;8.50;;;;;8.11;72.25;100763.53;6186712;22;45272;-79
2022/11/19 05:46:14;;;;;;;;;7.00;6.00;;;;;8.08;72.18;100761.75;6188143;22;45293;-79
2022/11/19 05:48:39;;;;;;;;;8.75;5.25;;;;;8.16;72.44;100778.41;6187769;22;45205;-79
2022/11/19 05:51:05;;;;;;;;;5.00;5.00;;;;;8.20;72.65;100779.31;6187492;23;46163;-79
2022/11/19 05:53:30;;;;;;;;;10.25;7.50;;;;;8.04;72.43;100761.72;6188069;22;45193;-79
2022/11/19 05:55:56;;;;;;;;;10.25;6.50;;;;;8.08;72.52;100764.38;6187818;22;45724;-79
2022/11/19 05:58:21;;;;;;;;;7.00;6.50;;;;;8.08;72.83;100774.00;6185701;23;45560;-79
2022/11/19 06:00:47;;;;;;;;;6.50;5.75;;;;;8.13;72.75;100780.16;6187300;22;45457;-79
2022/11/19 06:03:12;;;;;;;;;8.25;7.25;;;;;8.00;72.79;100759.97;6185497;23;45648;-79
2022/11/19 06:05:37;;;;;;;;;8.75;8.75;;;;;7.93;72.73;100741.53;6188283;22;45138;-79
2022/11/19 06:08:03;;;;;;;;;8.00;8.00;;;;;8.08;73.00;100760.88;6187619;22;45154;-79
2022/11/19 06:10:28;;;;;;;;;7.00;7.00;;;;;8.02;73.08;100735.50;6187386;22;45221;-78
2022/11/19 06:12:54;;;;;;;;;8.25;5.50;;;;;8.29;73.26;100768.00;6187876;22;45191;-79
2022/11/19 06:15:19;;;;;;;;;8.50;8.50;;;;;8.28;73.08;100759.25;6187771;22;45236;-79
2022/11/19 06:17:44;;;;;;;;;10.25;8.75;;;;;8.20;73.11;100750.44;6187410;22;45514;-79
2022/11/19 06:20:10;;;;;;;;;11.00;8.50;;;;;8.30;72.88;100760.13;6187698;22;45419;-79
2022/11/19 06:22:36;;;;;;;;;10.50;6.00;;;;;8.36;72.96;100777.66;6188094;22;45324;-79
2022/11/19 06:25:03;;;;;;;;;9.00;8.75;;;;;8.24;73.10;100747.00;6186245;23;45315;-79
2022/11/19 06:27:28;;;;;;;;;8.00;7.75;;;;;8.47;73.35;100790.88;6187376;22;45364;-79
2022/11/19 06:29:54;;;;;;;;;6.75;6.75;;;;;8.47;72.94;100785.63;6187044;22;45290;-79
2022/11/19 06:32:19;;;;;;;;;10.25;8.75;;;;;8.53;72.75;100793.53;6187728;22;45421;-78
2022/11/19 06:34:44;;;;;;;;;7.75;6.25;;;;;8.55;72.60;100802.28;6187688;22;45342;-77
2022/11/19 06:37:10;;;;;;;;;5.00;5.00;;;;;8.63;72.84;100815.44;6185502;23;45657;-78
2022/11/19 06:39:35;;;;;;;;;8.75;7.75;;;;;8.43;72.60;100794.34;6185038;23;47590;-78
2022/11/19 06:44:44;;;;;;;;;9.00;4.25;;;;;8.49;73.04;100808.38;6187182;23;45213;-79
2022/11/19 06:47:10;;;;;;;;;10.00;7.50;;;;;8.48;72.96;100811.00;6185322;23;45423;-78
2022/11/19 06:49:35;;;;;;;;;8.00;6.50;;;;;8.58;73.13;100824.19;6186814;22;45431;-78
2022/11/19 06:52:00;;;;;;;;;7.00;7.00;;;;;8.36;73.16;100791.63;6188291;22;45193;-78
2022/11/19 06:54:26;;;;;;;;;9.50;8.25;;;;;8.52;73.18;100832.00;6187581;22;45183;-78
2022/11/19 06:56:51;;;;;;;;;11.75;9.50;;;;;8.40;73.27;100818.81;6186592;22;45502;-79
2022/11/19 06:59:16;;;;;;;;;8.50;8.00;;;;;8.25;73.27;100792.44;6187019;22;46431;-78
2022/11/19 07:01:42;;;;;;;;;10.75;8.25;;;;;8.39;73.46;100831.06;6187642;22;45335;-79
2022/11/19 07:04:07;;;;;;;;;5.75;5.75;;;;;8.18;73.49;100807.28;6187801;22;45707;-79
2022/11/19 07:06:32;;;;;;;;;8.50;7.00;;;;;8.26;73.80;100829.19;6185473;23;45442;-78
2022/11/19 07:08:58;;;;;;;;;7.25;5.25;;;;;8.14;74.12;100806.34;6185620;23;46092;-77
2022/11/19 07:11:29;;;;;;;;;9.00;5.75;;;;;8.21;73.92;100823.03;6184995;22;45165;-78
2022/11/19 07:13:56;;;;;;;;;9.75;8.75;;;;;8.28;73.97;100837.91;6186221;23;45308;-77
2022/11/19 07:16:23;;;;;;;;;8.75;8.50;;;;;8.14;74.00;100822.09;6186672;22;45122;-78
2022/11/19 07:18:49;;;;;;;;;3.75;3.75;;;;;8.37;74.24;100861.63;6184737;23;46294;-78
2022/11/19 07:21:14;;;;;;;;;9.00;8.00;;;;;8.24;74.37;100836.16;6187122;22;45209;-78
2022/11/19 07:23:39;;;;;;;;;6.75;6.50;;;;;8.28;74.14;100852.78;6186744;22;45539;-78
2022/11/19 07:26:05;;;;;;;;;8.25;8.25;;;;;8.24;73.74;100848.41;6186905;22;45356;-78
2022/11/19 07:28:33;;;;;;;;;10.00;8.00;;;;;8.21;74.01;100846.63;6187615;22;45315;-78
2022/11/19 07:30:58;;;;;;;;;11.00;9.00;;;;;8.15;74.10;100834.34;6186785;22;45314;-78
2022/11/19 07:33:23;;;;;;;;;10.75;9.75;;;;;8.18;73.71;100849.25;6186833;22;45260;-78
2022/11/19 07:35:49;;;;;;;;;9.50;8.50;;;;;8.17;73.74;100842.22;6210282;22;45468;-78
2022/11/19 07:38:14;;;;;;;;;7.00;7.00;;;;;8.25;73.92;100865.88;6184966;23;47856;-78
2022/11/19 07:40:39;;;;;;;;;3.25;2.75;;;;;8.30;73.74;100882.53;6186826;22;45196;-78
2022/11/19 07:43:05;;;;;;;;;11.25;8.25;;;;;8.23;74.03;100876.34;6186776;22;45264;-79
2022/11/19 07:45:30;;;;;;;;;9.25;9.25;;;;;8.26;73.75;100871.16;6186602;22;45438;-78
2022/11/19 07:47:55;;;;;;;;;8.25;8.00;;;;;8.18;73.85;100857.09;6186655;22;46131;-77
2022/11/19 07:50:21;;;;;;;;;9.75;8.75;;;;;8.32;74.00;100875.56;6186624;22;45121;-78
2022/11/19 07:52:46;;;;;;;;;9.00;7.50;;;;;8.19;74.26;100858.84;6186500;22;45185;-78
2022/11/19 07:55:12;;;;;;;;;9.25;9.00;;;;;8.26;73.62;100867.63;6186768;22;45218;-78
2022/11/19 07:57:37;;;;;;;;;12.25;11.00;;;;;8.39;73.58;100883.53;6185593;22;46024;-79
2022/11/19 08:00:04;;;;;;;;;12.00;11.50;;;;;8.41;73.50;100883.53;6183875;23;45198;-79
2022/11/19 08:02:30;;;;;;;;;14.50;14.00;;;;;8.63;73.29;100916.03;6186111;23;45219;-79
2022/11/19 08:04:55;;;;;;;;;11.50;10.75;;;;;8.58;73.70;100900.28;6186047;22;45563;-78
2022/11/19 08:07:20;;;;;;;;;9.25;8.25;;;;;8.66;73.50;100907.31;6185923;22;46119;-79
2022/11/19 08:09:46;;;;;;;;;7.75;5.50;;;;;8.64;73.17;100891.56;6186712;22;45300;-78
2022/11/19 08:12:11;;;;;;;;;11.00;10.25;;;;;8.80;73.29;100919.66;6184582;23;45401;-79
2022/11/19 08:14:37;;;;;;;;;11.50;11.00;;;;;8.91;72.87;100929.34;6185846;22;45221;-79
2022/11/19 08:19:46;;;;;;;;;10.00;9.50;;;;;8.80;72.86;100917.03;6185990;23;45386;-79
2022/11/19 08:22:12;;;;;;;;;15.75;12.75;;;;;8.95;72.94;100937.25;6186179;23;45268;-80
2022/11/19 08:24:37;;;;;;;;;15.00;13.00;;;;;9.01;72.80;100942.56;6186180;22;45359;-79
2022/11/19 08:27:04;;;;;;;;;14.00;12.50;;;;;9.00;72.88;100942.53;6185086;22;45395;-79
2022/11/19 08:29:30;;;;;;;;;11.75;11.75;;;;;9.01;72.64;100928.56;6182573;23;45333;-79
2022/11/19 08:31:55;;;;;;;;;11.75;11.25;;;;;9.16;72.69;100944.38;6185005;22;45242;-79
2022/11/19 08:34:21;;;;;;;;;17.00;12.00;;;;;9.09;72.68;100939.06;6183742;23;45443;-78
2022/11/19 08:36:46;;;;;;;;;17.25;13.25;;;;;8.94;72.42;100914.50;6183868;23;47094;-79
2022/11/19 08:39:12;;;;;;;;;13.75;11.75;;;;;9.24;72.40;100960.16;6185875;22;45147;-79
2022/11/19 08:44:21;;;;;;;;;15.25;14.00;;;;;9.09;72.36;100928.56;6186198;23;45276;-79
2022/11/19 08:46:47;;;;;;;;;11.25;10.50;;;;;9.20;72.53;100946.16;6184525;23;46343;-80
2022/11/19 08:49:12;;;;;;;;;15.25;13.75;;;;;9.41;72.30;100970.75;6186478;22;45110;-76
2022/11/19 08:51:38;;;;;;;;;14.50;13.50;;;;;9.44;72.30;100976.06;6184341;23;45097;-78
2022/11/19 08:54:04;;;;;;;;;12.50;12.50;;;;;9.33;72.28;100944.47;6184290;23;45551;-78
2022/11/19 08:56:29;;;;;;;;;18.00;13.50;;;;;9.37;72.23;100948.84;6185548;22;45500;-78
2022/11/19 08:58:55;;;;;;;;;12.00;12.00;;;;;9.56;72.35;100973.47;6185551;22;45190;-79
2022/11/19 09:01:21;;;;;;;;;13.50;11.00;;;;;9.54;72.04;100969.94;6183042;22;45553;-79
2022/11/19 09:03:46;;;;;;;;;11.00;11.00;;;;;9.51;72.15;100951.53;6183044;22;45493;-79
2022/11/19 09:06:12;;;;;;;;;10.25;8.75;;;;;9.47;71.69;100947.16;6184130;22;46933;-79
2022/11/19 09:08:38;;;;;;;;;8.25;6.00;;;;;9.54;71.83;100962.06;6185915;22;45304;-79
2022/11/19 09:11:09;;;;;;;;;10.50;8.50;;;;;9.51;71.71;100951.53;6185382;23;45323;-79
2022/11/19 09:13:35;;;;;;;;;14.00;10.25;;;;;9.63;71.89;100963.88;6183620;23;45347;-79
2022/11/19 09:16:01;;;;;;;;;12.25;11.50;;;;;9.64;71.94;100960.34;6184887;23;45512;-81
2022/11/19 09:18:26;;;;;;;;;8.00;6.50;;;;;9.73;71.90;100963.03;6185035;22;45411;-79
2022/11/19 09:20:54;;;;;;;;;9.25;9.25;;;;;9.69;71.44;100954.22;6182850;22;45280;-79
2022/11/19 09:23:19;;;;;;;;;8.50;8.25;;;;;9.77;71.57;100967.41;6180513;23;45486;-78
2022/11/19 09:25:52;;;;;;;;;11.50;9.25;;;;;9.88;71.38;100968.31;6179992;23;46832;-79
2022/11/19 09:28:18;;;;;;;;;12.50;11.25;;;;;10.00;71.37;100985.00;6184043;22;45338;-79
2022/11/19 09:30:43;;;;;;;;;11.25;11.25;;;;;9.73;71.43;100931.47;6184057;22;45644;-79
2022/11/19 09:33:11;;;;;;;;;12.75;12.75;;;;;10.01;71.08;100981.50;6183841;22;45481;-78
2022/11/19 09:35:36;;;;;;;;;11.25;11.25;;;;;10.05;71.14;100980.63;6185068;22;46375;-77
2022/11/19 09:38:01;;;;;;;;;12.50;12.50;;;;;10.08;70.93;100980.66;6185133;22;45313;-77
2022/11/19 09:40:27;;;;;;;;;9.25;9.00;;;;;10.01;70.83;100969.22;6185413;22;45218;-78
2022/11/19 09:43:14;;;;;;;;;10.75;10.75;;;;;10.10;70.63;100978.88;6185162;22;45474;-78
2022/11/19 09:46:16;;;;;;;;;12.50;11.50;;;;;10.21;70.44;101005.19;6184988;22;45443;-78
2022/11/19 09:48:42;;;;;;;;;12.50;10.75;;;;;10.11;70.53;100985.91;6185029;22;45177;-79
2022/11/19 09:51:13;;;;;;;;;11.75;11.75;;;;;10.17;70.45;101004.34;6185114;22;45454;-80
2022/11/19 09:53:53;;;;;;;;;12.25;11.25;;;;;10.07;70.45;100979.75;6184997;23;45289;-79
2022/11/19 09:56:37;;;;;;;;;11.75;10.50;;;;;10.19;70.26;100991.19;6184555;23;45440;-79
2022/11/19 09:59:15;;;;;;;;;22.25;17.75;;;;;9.99;70.23;100962.19;6184485;22;45174;-79
2022/11/19 10:01:41;;;;;;;;;15.25;13.25;;;;;10.06;70.57;100974.50;6184955;22;45394;-78
2022/11/19 10:04:09;;;;;;;;;11.25;10.75;;;;;10.20;71.06;100985.03;6183852;22;45319;-78
2022/11/19 10:06:51;;;;;;;;;15.75;10.75;;;;;10.38;70.87;100983.34;6184754;22;46467;-79
2022/11/19 10:09:30;;;;;;;;;12.50;10.00;;;;;10.71;70.63;101007.06;6185179;23;45220;-79
2022/11/19 10:11:58;;;;;;;;;11.00;10.75;;;;;10.80;70.19;100989.50;6182306;23;45388;-79
2022/11/19 10:14:32;;;;;;;;;13.50;11.50;;;;;10.99;70.04;100992.13;6183823;22;45238;-79
2022/11/19 10:17:26;;;;;;;;;14.75;13.25;;;;;11.23;69.72;100996.47;6183557;22;46165;-80
2022/11/19 10:20:24;;;;;;;;;12.75;11.75;;;;;11.44;69.78;100985.84;6183146;23;45156;-79
2022/11/19 10:23:00;;;;;;;;;14.00;12.75;;;;;11.59;68.75;100976.13;6184745;22;45157;-79
2022/11/19 10:25:41;;;;;;;;;12.50;11.25;;;;;11.79;67.78;100989.25;6184762;22;45270;-79
2022/11/19 10:28:14;;;;;;;;;13.00;9.25;;;;;11.90;67.77;100976.91;6184678;22;45189;-79
2022/11/19 10:30:47;;;;;;;;;14.00;12.50;;;;;12.06;67.96;100977.69;6208868;22;45801;-79
2022/11/19 10:33:23;;;;;;;;;14.25;9.75;;;;;12.52;67.43;100986.16;6185613;23;45373;-79
2022/11/19 10:36:01;;;;;;;;;10.25;8.75;;;;;13.35;67.86;100979.22;6184083;23;45378;-80
2022/11/19 10:38:35;;;;;;;;;10.00;8.00;;;;;14.81;67.32;100987.75;6183669;23;47129;-79
2022/11/19 10:41:08;;;;;;;;;9.25;9.00;;;;;16.35;64.99;100974.91;6186160;22;45227;-78
2022/11/19 10:43:45;;;;;;;;;10.00;10.00;;;;;17.80;61.98;100970.16;6184239;23;45326;-81
2022/11/19 10:46:14;;;;;;;;;10.00;10.00;;;;;19.01;59.49;100970.75;6184098;23;45245;-82
2022/11/19 10:48:47;;;;;;;;;8.00;6.67;;;;;19.87;57.26;100965.81;6186580;22;45342;-82
2022/11/19 10:51:20;;;;;;;;;10.33;8.00;;;;;21.05;56.14;100957.41;6184383;23;46092;-81
2022/11/19 10:53:46;;;;;;;;;10.67;9.33;;;;;22.09;53.39;100955.31;6184024;23;45287;-79
2022/11/19 10:56:17;;;;;;;;;8.00;6.67;;;;;21.91;50.59;100959.75;6182858;23;45190;-82
2022/11/19 10:58:53;;;;;;;;;8.67;7.33;;;;;20.98;49.65;100961.28;6184164;23;47237;-83
2022/11/19 11:01:28;;;;;;;;;8.00;7.67;;;;;19.94;49.63;100967.31;6183201;23;45302;-78
2022/11/19 11:04:21;;;;;;;;;9.00;8.33;;;;;18.91;49.62;100968.38;6185421;22;45337;-78
2022/11/19 11:06:50;;;;;;;;;10.67;9.33;;;;;18.05;50.33;100973.84;6177589;23;45262;-79
2022/11/19 11:09:39;;;;;;;;;13.00;10.33;;;;;17.19;51.09;100965.69;6185426;22;45944;-81
2022/11/19 11:15:21;;;;;;;;;8.00;7.33;;;;;15.73;52.75;100960.38;6185778;23;45231;-79
2022/11/19 11:17:58;;;;;;;;;13.00;12.75;;;;;15.33;53.78;100947.91;6185804;22;45423;-78
2022/11/19 11:20:27;;;;;;;;;11.75;10.75;;;;;16.50;55.67;100964.78;6185952;22;45357;-80
2022/11/19 11:23:10;;;;;;;;;12.00;8.75;;;;;18.60;54.20;100962.31;6185771;22;45169;-81
2022/11/19 11:25:37;;;;;;;;;9.33;9.00;;;;;20.55;51.95;100950.59;6184133;23;45372;-80
2022/11/19 11:28:12;;;;;;;;;17.00;14.75;;;;;22.29;49.16;100951.69;6187055;23;45164;-81
2022/11/19 11:31:00;;;;;;;;;12.00;11.00;;;;;23.87;47.22;100954.22;6185892;23;45174;-80
2022/11/19 11:33:28;;;;;;;;;7.00;5.67;;;;;25.16;45.00;100951.22;6185912;22;45290;-81
2022/11/19 11:36:05;;;;;;;;;9.00;7.33;;;;;26.44;43.12;100958.31;6184304;23;45243;-80
2022/11/19 11:38:30;;;;;;;;;10.67;7.67;;;;;27.60;40.97;100944.00;6187464;22;45356;-80
2022/11/19 11:41:06;;;;;;;;;7.67;5.00;;;;;28.58;39.02;100952.19;6183478;23;47043;-81
2022/11/19 11:43:34;;;;;;;;;3.00;3.00;;;;;28.24;36.08;100946.56;6186379;23;45126;-82
2022/11/19 11:46:17;;;;;;;;;6.33;6.33;;;;;26.10;35.52;100959.69;6186321;22;45222;-80
2022/11/19 11:48:47;;;;;;;;;3.67;3.67;;;;;24.28;37.11;100950.97;6183330;23;45187;-80
2022/11/19 11:51:40;;;;;;;;;3.33;3.33;;;;;22.66;37.98;100955.22;6185004;22;46020;-81
2022/11/19 11:54:19;;;;;;;;;7.33;6.33;;;;;21.27;39.30;100960.00;6185584;22;45328;-80
2022/11/19 11:56:45;;;;;;;;;6.67;5.67;;;;;20.25;40.80;100955.38;6184779;23;45597;-80
2022/11/19 11:59:23;;;;;;;;;5.33;5.33;;;;;19.49;42.03;100945.88;6183217;23;45421;-82
2022/11/19 12:01:56;;;;;;;;;8.67;8.33;;;;;19.77;42.63;100948.38;6183610;23;48048;-81
2022/11/19 12:04:22;;;;;;;;;6.00;6.00;;;;;19.74;42.52;100946.69;6184531;23;45160;-81
2022/11/19 12:07:10;;;;;;;;;8.00;7.00;;;;;19.67;42.63;100949.66;6186210;23;45153;-80
2022/11/19 12:10:06;;;;;;;;;8.00;7.67;;;;;19.06;42.42;100959.00;6186079;23;45327;-80
2022/11/19 12:12:41;;;;;;;;;6.33;6.33;;;;;18.89;43.44;100956.88;6184623;23;47066;-81
2022/11/19 12:15:45;;;;;;;;;9.33;6.33;;;;;18.80;43.07;100956.34;6185416;23;45800;-82
2022/11/19 12:18:32;;;;;;;;;4.00;3.00;;;;;18.36;43.23;100956.88;6160103;23;45373;-82
2022/11/19 12:21:04;;;;;;;;;4.67;4.67;;;;;18.04;43.85;100937.47;6184555;23;45386;-81
2022/11/19 12:23:35;;;;;;;;;7.00;5.67;;;;;18.17;44.51;100942.41;6184655;23;47325;-81
2022/11/19 12:26:25;;;;;;;;;7.00;7.00;;;;;18.96;44.43;100949.56;6185269;22;45138;-79
2022/11/19 12:29:26;;;;;;;;;5.00;5.00;;;;;19.16;43.97;100935.50;6185798;22;45398;-80
2022/11/19 12:32:14;;;;;;;;;6.00;6.00;;;;;19.21;43.92;100928.19;6174272;23;45344;-80
2022/11/19 12:34:39;;;;;;;;;7.67;7.67;;;;;19.63;43.96;100934.66;6183862;23;47115;-80
2022/11/19 12:37:16;;;;;;;;;7.00;7.00;;;;;19.95;43.36;100928.09;6185610;23;45158;-80
2022/11/19 12:39:45;;;;;;;;;6.00;6.00;;;;;20.05;43.40;100932.16;6186697;22;45257;-81
2022/11/19 12:42:30;;;;;;;;;4.33;4.33;;;;;19.98;42.91;100923.50;6185331;22;45103;-81